sensor_id;sensor_type;location;lat;lon;timestamp;P1;durP1;ratioP1;P2;durP2;ratioP2
85067;SDS011;75403;44.574;2.080;2024-02-21T00:02:12;6.13;;;2.20;;
85067;SDS011;75403;44.574;2.080;2024-02-21T00:04:38;6.05;;;2.20;;
85067;SDS011;75403;44.574;2.080;2024-02-21T00:07:05;4.53;;;2.10;;
85067;SDS011;75403;44.574;2.080;2024-02-21T00:09:31;5.50;;;2.50;;
85067;SDS011;75403;44.574;2.080;2024-02-21T00:11:57;5.07;;;2.00;;
85067;SDS011;75403;44.574;2.080;2024-02-21T00:14:24;5.28;;;2.15;;
85067;SDS011;75403;44.574;2.080;2024-02-21T00:16:50;5.63;;;2.30;;
85067;SDS011;75403;44.574;2.080;2024-02-21T00:19:16;5.32;;;2.20;;
85067;SDS011;75403;44.574;2.080;2024-02-21T00:21:42;5.57;;;2.25;;
85067;SDS011;75403;44.574;2.080;2024-02-21T00:24:08;4.88;;;2.00;;
85067;SDS011;75403;44.574;2.080;2024-02-21T00:26:34;4.90;;;2.08;;
85067;SDS011;75403;44.574;2.080;2024-02-21T00:29:00;4.90;;;2.22;;
85067;SDS011;75403;44.574;2.080;2024-02-21T00:31:26;5.13;;;2.20;;
85067;SDS011;75403;44.574;2.080;2024-02-21T00:33:52;4.70;;;2.17;;
85067;SDS011;75403;44.574;2.080;2024-02-21T00:36:18;5.75;;;2.00;;
85067;SDS011;75403;44.574;2.080;2024-02-21T00:38:44;4.90;;;2.05;;
85067;SDS011;75403;44.574;2.080;2024-02-21T00:41:10;6.30;;;2.10;;
85067;SDS011;75403;44.574;2.080;2024-02-21T00:43:36;4.95;;;2.10;;
85067;SDS011;75403;44.574;2.080;2024-02-21T00:46:02;4.53;;;2.20;;
85067;SDS011;75403;44.574;2.080;2024-02-21T00:48:28;5.18;;;1.90;;
85067;SDS011;75403;44.574;2.080;2024-02-21T00:50:54;5.30;;;2.10;;
85067;SDS011;75403;44.574;2.080;2024-02-21T00:53:20;4.55;;;1.95;;
85067;SDS011;75403;44.574;2.080;2024-02-21T00:55:46;6.78;;;2.10;;
85067;SDS011;75403;44.574;2.080;2024-02-21T00:58:12;5.22;;;2.00;;
85067;SDS011;75403;44.574;2.080;2024-02-21T01:00:38;4.33;;;2.00;;
85067;SDS011;75403;44.574;2.080;2024-02-21T01:03:04;5.13;;;2.10;;
85067;SDS011;75403;44.574;2.080;2024-02-21T01:05:30;5.18;;;1.98;;
85067;SDS011;75403;44.574;2.080;2024-02-21T01:07:56;5.38;;;2.03;;
85067;SDS011;75403;44.574;2.080;2024-02-21T01:10:22;5.50;;;2.10;;
85067;SDS011;75403;44.574;2.080;2024-02-21T01:12:48;4.90;;;2.08;;
85067;SDS011;75403;44.574;2.080;2024-02-21T01:15:14;4.75;;;1.90;;
85067;SDS011;75403;44.574;2.080;2024-02-21T01:17:40;4.28;;;1.80;;
85067;SDS011;75403;44.574;2.080;2024-02-21T01:20:07;5.20;;;2.27;;
85067;SDS011;75403;44.574;2.080;2024-02-21T01:22:33;4.30;;;2.00;;
85067;SDS011;75403;44.574;2.080;2024-02-21T01:24:59;4.88;;;1.95;;
85067;SDS011;75403;44.574;2.080;2024-02-21T01:27:25;4.47;;;2.10;;
85067;SDS011;75403;44.574;2.080;2024-02-21T01:29:51;4.82;;;2.00;;
85067;SDS011;75403;44.574;2.080;2024-02-21T01:32:17;4.50;;;1.92;;
85067;SDS011;75403;44.574;2.080;2024-02-21T01:34:43;4.88;;;2.00;;
85067;SDS011;75403;44.574;2.080;2024-02-21T01:37:09;4.30;;;1.80;;
85067;SDS011;75403;44.574;2.080;2024-02-21T01:39:35;5.03;;;2.00;;
85067;SDS011;75403;44.574;2.080;2024-02-21T01:42:01;4.40;;;1.98;;
85067;SDS011;75403;44.574;2.080;2024-02-21T01:44:27;4.93;;;2.05;;
85067;SDS011;75403;44.574;2.080;2024-02-21T01:46:53;5.07;;;2.03;;
85067;SDS011;75403;44.574;2.080;2024-02-21T01:49:19;5.22;;;1.92;;
85067;SDS011;75403;44.574;2.080;2024-02-21T01:51:46;5.18;;;1.83;;
85067;SDS011;75403;44.574;2.080;2024-02-21T01:54:13;5.00;;;1.92;;
85067;SDS011;75403;44.574;2.080;2024-02-21T01:56:39;4.47;;;1.90;;
85067;SDS011;75403;44.574;2.080;2024-02-21T01:59:05;5.73;;;1.97;;
85067;SDS011;75403;44.574;2.080;2024-02-21T02:01:31;4.03;;;1.75;;
85067;SDS011;75403;44.574;2.080;2024-02-21T02:03:57;4.65;;;1.85;;
85067;SDS011;75403;44.574;2.080;2024-02-21T02:06:24;4.15;;;1.80;;
85067;SDS011;75403;44.574;2.080;2024-02-21T02:08:51;4.53;;;1.90;;
85067;SDS011;75403;44.574;2.080;2024-02-21T02:11:17;4.60;;;1.90;;
85067;SDS011;75403;44.574;2.080;2024-02-21T02:13:43;4.15;;;1.95;;
85067;SDS011;75403;44.574;2.080;2024-02-21T02:16:09;4.78;;;2.10;;
85067;SDS011;75403;44.574;2.080;2024-02-21T02:18:35;4.67;;;1.93;;
85067;SDS011;75403;44.574;2.080;2024-02-21T02:21:01;4.50;;;1.70;;
85067;SDS011;75403;44.574;2.080;2024-02-21T02:23:29;4.30;;;1.70;;
85067;SDS011;75403;44.574;2.080;2024-02-21T02:25:56;4.80;;;1.80;;
85067;SDS011;75403;44.574;2.080;2024-02-21T02:28:23;4.68;;;2.00;;
85067;SDS011;75403;44.574;2.080;2024-02-21T02:30:49;4.57;;;2.00;;
85067;SDS011;75403;44.574;2.080;2024-02-21T02:33:15;4.50;;;1.90;;
85067;SDS011;75403;44.574;2.080;2024-02-21T02:35:45;4.68;;;1.90;;
85067;SDS011;75403;44.574;2.080;2024-02-21T02:38:11;5.15;;;1.92;;
85067;SDS011;75403;44.574;2.080;2024-02-21T02:40:38;5.28;;;1.90;;
85067;SDS011;75403;44.574;2.080;2024-02-21T02:43:05;4.38;;;1.80;;
85067;SDS011;75403;44.574;2.080;2024-02-21T02:45:32;3.97;;;1.83;;
85067;SDS011;75403;44.574;2.080;2024-02-21T02:47:58;4.40;;;1.90;;
85067;SDS011;75403;44.574;2.080;2024-02-21T02:50:24;4.80;;;1.95;;
85067;SDS011;75403;44.574;2.080;2024-02-21T02:52:51;4.10;;;1.60;;
85067;SDS011;75403;44.574;2.080;2024-02-21T02:55:17;4.10;;;1.83;;
85067;SDS011;75403;44.574;2.080;2024-02-21T02:57:43;5.35;;;1.83;;
85067;SDS011;75403;44.574;2.080;2024-02-21T03:00:13;4.13;;;1.73;;
85067;SDS011;75403;44.574;2.080;2024-02-21T03:02:40;4.13;;;1.80;;
85067;SDS011;75403;44.574;2.080;2024-02-21T03:07:39;4.22;;;1.73;;
85067;SDS011;75403;44.574;2.080;2024-02-21T03:10:05;4.50;;;1.90;;
85067;SDS011;75403;44.574;2.080;2024-02-21T03:12:31;4.90;;;1.80;;
85067;SDS011;75403;44.574;2.080;2024-02-21T03:14:57;4.32;;;1.80;;
85067;SDS011;75403;44.574;2.080;2024-02-21T03:17:24;4.15;;;1.67;;
85067;SDS011;75403;44.574;2.080;2024-02-21T03:19:52;4.40;;;1.60;;
85067;SDS011;75403;44.574;2.080;2024-02-21T03:22:18;4.90;;;1.70;;
85067;SDS011;75403;44.574;2.080;2024-02-21T03:24:44;5.68;;;1.90;;
85067;SDS011;75403;44.574;2.080;2024-02-21T03:27:10;4.70;;;1.83;;
85067;SDS011;75403;44.574;2.080;2024-02-21T03:29:36;4.53;;;1.80;;
85067;SDS011;75403;44.574;2.080;2024-02-21T03:32:02;5.00;;;1.90;;
85067;SDS011;75403;44.574;2.080;2024-02-21T03:34:28;4.30;;;1.80;;
85067;SDS011;75403;44.574;2.080;2024-02-21T03:36:54;3.93;;;1.70;;
85067;SDS011;75403;44.574;2.080;2024-02-21T03:39:20;4.45;;;1.67;;
85067;SDS011;75403;44.574;2.080;2024-02-21T03:41:46;3.88;;;1.70;;
85067;SDS011;75403;44.574;2.080;2024-02-21T03:44:12;4.60;;;1.70;;
85067;SDS011;75403;44.574;2.080;2024-02-21T03:46:38;4.68;;;1.80;;
85067;SDS011;75403;44.574;2.080;2024-02-21T03:49:05;5.10;;;1.67;;
85067;SDS011;75403;44.574;2.080;2024-02-21T03:51:31;3.67;;;1.70;;
85067;SDS011;75403;44.574;2.080;2024-02-21T03:53:57;3.90;;;1.60;;
85067;SDS011;75403;44.574;2.080;2024-02-21T03:56:23;4.90;;;1.90;;
85067;SDS011;75403;44.574;2.080;2024-02-21T03:58:49;4.35;;;1.80;;
85067;SDS011;75403;44.574;2.080;2024-02-21T04:01:15;4.00;;;1.73;;
85067;SDS011;75403;44.574;2.080;2024-02-21T04:03:42;4.67;;;1.70;;
85067;SDS011;75403;44.574;2.080;2024-02-21T04:06:11;4.22;;;1.60;;
85067;SDS011;75403;44.574;2.080;2024-02-21T04:08:38;3.92;;;1.75;;
85067;SDS011;75403;44.574;2.080;2024-02-21T04:11:04;4.53;;;1.70;;
85067;SDS011;75403;44.574;2.080;2024-02-21T04:13:30;4.47;;;1.95;;
85067;SDS011;75403;44.574;2.080;2024-02-21T04:15:56;4.53;;;1.83;;
85067;SDS011;75403;44.574;2.080;2024-02-21T04:18:22;5.40;;;1.80;;
85067;SDS011;75403;44.574;2.080;2024-02-21T04:20:50;4.10;;;1.70;;
85067;SDS011;75403;44.574;2.080;2024-02-21T04:23:16;5.27;;;1.77;;
85067;SDS011;75403;44.574;2.080;2024-02-21T04:25:42;4.78;;;1.88;;
85067;SDS011;75403;44.574;2.080;2024-02-21T04:28:08;4.28;;;1.75;;
85067;SDS011;75403;44.574;2.080;2024-02-21T04:30:34;3.85;;;1.80;;
85067;SDS011;75403;44.574;2.080;2024-02-21T04:33:00;4.20;;;1.60;;
85067;SDS011;75403;44.574;2.080;2024-02-21T04:35:26;3.83;;;1.50;;
85067;SDS011;75403;44.574;2.080;2024-02-21T04:37:52;5.13;;;1.70;;
85067;SDS011;75403;44.574;2.080;2024-02-21T04:40:18;3.95;;;1.70;;
85067;SDS011;75403;44.574;2.080;2024-02-21T04:42:44;4.40;;;1.70;;
85067;SDS011;75403;44.574;2.080;2024-02-21T04:45:10;4.72;;;1.70;;
85067;SDS011;75403;44.574;2.080;2024-02-21T04:47:36;4.40;;;1.70;;
85067;SDS011;75403;44.574;2.080;2024-02-21T04:50:02;5.22;;;1.60;;
85067;SDS011;75403;44.574;2.080;2024-02-21T04:52:28;4.78;;;1.60;;
85067;SDS011;75403;44.574;2.080;2024-02-21T04:54:54;4.38;;;1.77;;
85067;SDS011;75403;44.574;2.080;2024-02-21T04:57:21;4.32;;;1.70;;
85067;SDS011;75403;44.574;2.080;2024-02-21T04:59:47;4.13;;;1.57;;
85067;SDS011;75403;44.574;2.080;2024-02-21T05:02:13;4.07;;;1.52;;
85067;SDS011;75403;44.574;2.080;2024-02-21T05:04:39;3.90;;;1.60;;
85067;SDS011;75403;44.574;2.080;2024-02-21T05:07:06;4.68;;;1.70;;
85067;SDS011;75403;44.574;2.080;2024-02-21T05:09:32;3.83;;;1.60;;
85067;SDS011;75403;44.574;2.080;2024-02-21T05:11:58;3.95;;;1.70;;
85067;SDS011;75403;44.574;2.080;2024-02-21T05:14:25;4.18;;;1.73;;
85067;SDS011;75403;44.574;2.080;2024-02-21T05:16:54;4.38;;;1.60;;
85067;SDS011;75403;44.574;2.080;2024-02-21T05:19:20;3.42;;;1.55;;
85067;SDS011;75403;44.574;2.080;2024-02-21T05:21:46;3.60;;;1.50;;
85067;SDS011;75403;44.574;2.080;2024-02-21T05:24:12;4.50;;;1.75;;
85067;SDS011;75403;44.574;2.080;2024-02-21T05:26:38;3.75;;;1.50;;
85067;SDS011;75403;44.574;2.080;2024-02-21T05:29:04;3.83;;;1.70;;
85067;SDS011;75403;44.574;2.080;2024-02-21T05:31:42;4.18;;;1.55;;
85067;SDS011;75403;44.574;2.080;2024-02-21T05:34:08;3.80;;;1.63;;
85067;SDS011;75403;44.574;2.080;2024-02-21T05:36:34;4.20;;;1.80;;
85067;SDS011;75403;44.574;2.080;2024-02-21T05:39:00;4.10;;;1.52;;
85067;SDS011;75403;44.574;2.080;2024-02-21T05:41:26;4.82;;;1.60;;
85067;SDS011;75403;44.574;2.080;2024-02-21T05:43:52;4.28;;;1.60;;
85067;SDS011;75403;44.574;2.080;2024-02-21T05:46:21;4.03;;;1.63;;
85067;SDS011;75403;44.574;2.080;2024-02-21T05:48:47;3.85;;;1.70;;
85067;SDS011;75403;44.574;2.080;2024-02-21T05:51:13;4.93;;;1.73;;
85067;SDS011;75403;44.574;2.080;2024-02-21T05:53:40;3.93;;;1.60;;
85067;SDS011;75403;44.574;2.080;2024-02-21T05:56:13;4.60;;;1.52;;
85067;SDS011;75403;44.574;2.080;2024-02-21T05:58:39;4.20;;;1.60;;
85067;SDS011;75403;44.574;2.080;2024-02-21T06:01:05;4.18;;;1.67;;
85067;SDS011;75403;44.574;2.080;2024-02-21T06:03:32;4.82;;;1.60;;
85067;SDS011;75403;44.574;2.080;2024-02-21T06:05:58;4.13;;;1.60;;
85067;SDS011;75403;44.574;2.080;2024-02-21T06:08:24;4.15;;;1.73;;
85067;SDS011;75403;44.574;2.080;2024-02-21T06:10:50;3.80;;;1.55;;
85067;SDS011;75403;44.574;2.080;2024-02-21T06:13:26;4.65;;;1.52;;
85067;SDS011;75403;44.574;2.080;2024-02-21T06:15:52;4.07;;;1.60;;
85067;SDS011;75403;44.574;2.080;2024-02-21T06:18:18;3.90;;;1.65;;
85067;SDS011;75403;44.574;2.080;2024-02-21T06:20:44;4.00;;;1.63;;
85067;SDS011;75403;44.574;2.080;2024-02-21T06:23:11;4.40;;;1.40;;
85067;SDS011;75403;44.574;2.080;2024-02-21T06:25:37;4.85;;;1.63;;
85067;SDS011;75403;44.574;2.080;2024-02-21T06:28:03;3.80;;;1.60;;
85067;SDS011;75403;44.574;2.080;2024-02-21T06:30:29;3.70;;;1.50;;
85067;SDS011;75403;44.574;2.080;2024-02-21T06:32:56;4.13;;;1.60;;
85067;SDS011;75403;44.574;2.080;2024-02-21T06:35:22;3.88;;;1.63;;
85067;SDS011;75403;44.574;2.080;2024-02-21T06:37:51;4.30;;;1.50;;
85067;SDS011;75403;44.574;2.080;2024-02-21T06:40:18;3.42;;;1.42;;
85067;SDS011;75403;44.574;2.080;2024-02-21T06:42:44;4.85;;;1.55;;
85067;SDS011;75403;44.574;2.080;2024-02-21T06:45:10;5.10;;;1.60;;
85067;SDS011;75403;44.574;2.080;2024-02-21T06:47:36;5.70;;;1.50;;
85067;SDS011;75403;44.574;2.080;2024-02-21T06:50:02;4.80;;;1.60;;
85067;SDS011;75403;44.574;2.080;2024-02-21T06:52:28;4.00;;;1.50;;
85067;SDS011;75403;44.574;2.080;2024-02-21T06:54:56;3.50;;;1.40;;
85067;SDS011;75403;44.574;2.080;2024-02-21T06:57:22;4.60;;;1.37;;
85067;SDS011;75403;44.574;2.080;2024-02-21T06:59:48;4.85;;;1.50;;
85067;SDS011;75403;44.574;2.080;2024-02-21T07:02:14;4.07;;;1.40;;
85067;SDS011;75403;44.574;2.080;2024-02-21T07:04:40;3.22;;;1.40;;
85067;SDS011;75403;44.574;2.080;2024-02-21T07:07:06;5.40;;;1.50;;
85067;SDS011;75403;44.574;2.080;2024-02-21T07:09:32;3.90;;;1.40;;
85067;SDS011;75403;44.574;2.080;2024-02-21T07:11:58;4.45;;;1.60;;
85067;SDS011;75403;44.574;2.080;2024-02-21T07:14:25;4.03;;;1.50;;
85067;SDS011;75403;44.574;2.080;2024-02-21T07:16:51;4.53;;;1.60;;
85067;SDS011;75403;44.574;2.080;2024-02-21T07:19:17;3.63;;;1.25;;
85067;SDS011;75403;44.574;2.080;2024-02-21T07:21:43;5.30;;;1.70;;
85067;SDS011;75403;44.574;2.080;2024-02-21T07:24:09;5.88;;;1.30;;
85067;SDS011;75403;44.574;2.080;2024-02-21T07:26:35;5.13;;;1.73;;
85067;SDS011;75403;44.574;2.080;2024-02-21T07:29:01;6.40;;;1.60;;
85067;SDS011;75403;44.574;2.080;2024-02-21T07:31:27;9.48;;;1.70;;
85067;SDS011;75403;44.574;2.080;2024-02-21T07:33:53;9.68;;;1.60;;
85067;SDS011;75403;44.574;2.080;2024-02-21T07:36:28;8.73;;;1.63;;
85067;SDS011;75403;44.574;2.080;2024-02-21T07:38:55;33.85;;;3.17;;
85067;SDS011;75403;44.574;2.080;2024-02-21T07:41:21;21.73;;;2.50;;
85067;SDS011;75403;44.574;2.080;2024-02-21T07:43:47;19.08;;;2.35;;
85067;SDS011;75403;44.574;2.080;2024-02-21T07:46:17;10.40;;;2.28;;
85067;SDS011;75403;44.574;2.080;2024-02-21T07:48:43;9.05;;;1.90;;
85067;SDS011;75403;44.574;2.080;2024-02-21T07:51:10;11.70;;;1.80;;
85067;SDS011;75403;44.574;2.080;2024-02-21T07:53:38;11.30;;;2.20;;
85067;SDS011;75403;44.574;2.080;2024-02-21T07:56:07;9.37;;;2.00;;
85067;SDS011;75403;44.574;2.080;2024-02-21T07:58:33;9.55;;;1.90;;
85067;SDS011;75403;44.574;2.080;2024-02-21T08:00:59;11.85;;;2.22;;
85067;SDS011;75403;44.574;2.080;2024-02-21T08:03:25;10.00;;;2.00;;
85067;SDS011;75403;44.574;2.080;2024-02-21T08:05:51;12.70;;;2.10;;
85067;SDS011;75403;44.574;2.080;2024-02-21T08:08:17;9.10;;;2.17;;
85067;SDS011;75403;44.574;2.080;2024-02-21T08:10:45;9.52;;;1.80;;
85067;SDS011;75403;44.574;2.080;2024-02-21T08:13:11;15.45;;;2.33;;
85067;SDS011;75403;44.574;2.080;2024-02-21T08:15:37;8.77;;;2.00;;
85067;SDS011;75403;44.574;2.080;2024-02-21T08:18:05;14.80;;;2.13;;
85067;SDS011;75403;44.574;2.080;2024-02-21T08:20:31;11.38;;;2.08;;
85067;SDS011;75403;44.574;2.080;2024-02-21T08:22:57;11.63;;;1.90;;
85067;SDS011;75403;44.574;2.080;2024-02-21T08:25:23;10.90;;;2.00;;
85067;SDS011;75403;44.574;2.080;2024-02-21T08:27:49;10.63;;;2.10;;
85067;SDS011;75403;44.574;2.080;2024-02-21T08:30:16;8.52;;;1.80;;
85067;SDS011;75403;44.574;2.080;2024-02-21T08:32:43;11.10;;;1.70;;
85067;SDS011;75403;44.574;2.080;2024-02-21T08:35:09;10.40;;;1.90;;
85067;SDS011;75403;44.574;2.080;2024-02-21T08:37:35;8.98;;;2.03;;
85067;SDS011;75403;44.574;2.080;2024-02-21T08:40:01;12.02;;;1.80;;
85067;SDS011;75403;44.574;2.080;2024-02-21T08:42:34;12.40;;;2.20;;
85067;SDS011;75403;44.574;2.080;2024-02-21T08:45:00;10.03;;;2.10;;
85067;SDS011;75403;44.574;2.080;2024-02-21T08:47:26;17.88;;;2.20;;
85067;SDS011;75403;44.574;2.080;2024-02-21T08:49:52;10.85;;;2.20;;
85067;SDS011;75403;44.574;2.080;2024-02-21T08:52:18;12.05;;;1.80;;
85067;SDS011;75403;44.574;2.080;2024-02-21T08:54:44;10.97;;;2.03;;
85067;SDS011;75403;44.574;2.080;2024-02-21T08:57:10;8.70;;;1.77;;
85067;SDS011;75403;44.574;2.080;2024-02-21T08:59:39;12.90;;;2.00;;
85067;SDS011;75403;44.574;2.080;2024-02-21T09:02:05;7.63;;;1.70;;
85067;SDS011;75403;44.574;2.080;2024-02-21T09:04:32;23.40;;;2.33;;
85067;SDS011;75403;44.574;2.080;2024-02-21T09:06:58;17.10;;;2.20;;
85067;SDS011;75403;44.574;2.080;2024-02-21T09:09:24;16.63;;;2.20;;
85067;SDS011;75403;44.574;2.080;2024-02-21T09:11:50;17.97;;;2.27;;
85067;SDS011;75403;44.574;2.080;2024-02-21T09:14:17;14.07;;;2.05;;
85067;SDS011;75403;44.574;2.080;2024-02-21T09:16:43;14.85;;;2.15;;
85067;SDS011;75403;44.574;2.080;2024-02-21T09:19:09;10.02;;;1.83;;
